METARs

EEEI - Ämari Air Base

EEEI 150850Z 17007KT 9999 OVC024 07/05 Q1030 R24/190095 NOSIG

EEKA - Kärdla

EEKA 150850Z 18005KT 9999 OVC027 08/06 Q1030

EEKE - Kuressaare

EEKE 150850Z 21006KT 190V250 9999 OVC026 08/06 Q1031

EEPU - Pärnu

EEPU 150850Z 21003KT 9999 OVC022 07/07 Q1031

EETN - Lennart Meri Tallinn

EETN 150850Z 21007KT 9999 OVC021 07/05 Q1030 R08/290195 NOSIG

EETU - Tartu

EETU 150850Z 00000KT 9999 OVC022 06/05 Q1031

Sign In

ATC Booking

currently no ATC Bookings...